Ashland, Virginia
Current Conditions -  °F | °C
As of 8:44 PM on Wednesday 26 Nov 2014 (Local Time) from KOFP Reporting Station
Overcast Overcast  
Wind Chill: 32°   Ceiling: 7000
Heat Index: 37°   Visibility: 10mi
Dew Point: 35°   Wind: 7mph
Humidity: 93%   Direction: 270°W
Pressure: 30.03"   Gusts: NA
Location:  37.76°N, 77.48°W
Report Text: KOFP 270144Z AUTO 27006KT 10SM FEW007 BKN070 OVC090 03/02 A3003 RMK AO2 T00280017
Loading
Personal Weather Stations






























Interactive Weather Map New forecast layout! Learn more

10-Day Weather Forecast

Advertisements
Track Severe Weather on mobile